Grâce-Hollogne Agusta Heliport

EBAG · Liège, Wallonia, 比利时

罗盘
风向 的 风向 030° 直升机
风: 4 kt, 2 beaufort
0 ft 1.000 2.000 3.000 4.000 5.000
CAVOK
METAR EBLG 252020Z 03004KT CAVOK 22/14 Q1013 NOSIG

METAR Grâce-Hollogne Agusta Heliport - EBAG

Grâce-Hollogne Agusta Heliport是,比利时中的直升机场。 该机场位于纬度50,64008和经度5,45759。 本场的ICAO机场代码为EBAG。 机场在Bruxelles FIR中。

该航空气象观测是针对列日机场在2024年6月25日 22:20, 当地时间进行的。

机场观察

风向为030°,速度为4 kt。

天气为CAVOK。这意味着在5.000 ft或MSA(最低安全高度)以下(以较高者为准)以下没有云。这也意味着没有观测到积雨云或高耸的积云,可见度为10 km 或者更多或更高。此外,不会有雾,降雨或其他重要天气。

温度和风寒是22 °C。 露点为14 °C,相对湿度为61%。 海平面上的气压为1013 hPa (QNH)。

白天

今天,太阳从05:26升起,在21:54降落。 这适用于Grâce-Hollogne Agusta Heliport,世界夏令时可能有所不同。 当地时间与世界标准时间之间的时差为+2 小时。 夏令时目前正在进行中。

公司介绍

我们没有关于这个机场的公司信息。

体会

到Vliegles.nl去找飞行课程,跳伞和其他飞行体验。 浏览页面,了解Grâce-Hollogne Agusta Heliport附近所有可用的活动。 你也可以使用搜索功能来寻找你所在地附近的特定飞行课程、跳伞或其他飞行体验。

温度 & 天气

温度 22 °C
露点 14 °C
相对湿度 61%
Kp-index 2 (0-9)

白天

日出
05:27 (6:30)
中午
13:41
日落
21:54

小工具

你想在你的网站上有一个关于Grâce-Hollogne Agusta Heliport的当前航空天气(METAR)的小部件吗?

显示HTML代码
报告变更